ARL weather

Arly Airport
Arly, Tapoa, Burkina Faso

Public forecast

Using degrees Celsius for public forecast. Weather courtesy of forecast.io.

Closest aviation weather report (METAR) to Arly Airport

Report is more than 6 hours old.

Closest report is Fada N'gourma Airport, 71.5 nm (132.5 km) WNW. Retrieved 2009/09/21 17:00 UTC (10 years ago):

DFEF 211700Z 00000KT 9999 FEW0226 TCU BKN260 30/25

Closest aviation forecast (TAF) to Arly Airport

Closest forecast is Niamtougou International Airport, 112.3 nm (207.9 km) SSW. Retrieved 2020-02-21 00:39 UTC (14 minutes ago):

TAF TAF DXNG 202300Z 2100/2124 04006KT 7000 NSC